createdAt,value
2022-09-26T00:02:31.256Z,13.77
2022-09-26T00:04:59.929Z,13.73
2022-09-26T00:07:28.522Z,13.73
2022-09-26T00:09:57.331Z,13.69
2022-09-26T00:12:25.976Z,13.68
2022-09-26T00:14:54.618Z,13.71
2022-09-26T00:17:23.242Z,13.72
2022-09-26T00:19:53.292Z,13.73
2022-09-26T00:22:21.910Z,13.69
2022-09-26T00:24:55.529Z,13.69
2022-09-26T00:27:24.567Z,13.67
2022-09-26T00:29:53.164Z,13.69
2022-09-26T00:32:22.107Z,13.67
2022-09-26T00:34:53.130Z,13.69
2022-09-26T00:37:21.767Z,13.69
2022-09-26T00:39:50.392Z,13.70
2022-09-26T00:42:18.957Z,13.71
2022-09-26T00:44:54.510Z,13.69
2022-09-26T00:47:46.059Z,13.68
2022-09-26T00:50:25.008Z,13.69
2022-09-26T00:52:58.148Z,13.66
2022-09-26T00:55:36.315Z,13.70
2022-09-26T00:58:14.129Z,13.67
2022-09-26T01:00:45.901Z,13.66
2022-09-26T01:03:16.903Z,13.62
2022-09-26T01:05:48.910Z,13.63
2022-09-26T01:08:26.840Z,13.64
2022-09-26T01:10:56.184Z,13.65
2022-09-26T01:13:25.670Z,13.66
2022-09-26T01:15:54.366Z,13.66
2022-09-26T01:18:23.748Z,13.66
2022-09-26T01:21:04.677Z,13.57
2022-09-26T01:24:19.056Z,13.58
2022-09-26T01:27:30.123Z,13.57
2022-09-26T01:30:11.053Z,13.57
2022-09-26T01:33:36.111Z,13.56
2022-09-26T01:36:45.065Z,13.47
2022-09-26T01:39:49.044Z,13.45
2022-09-26T01:42:33.995Z,13.41
2022-09-26T01:45:14.995Z,13.41
2022-09-26T01:47:51.720Z,13.42
2022-09-26T01:50:28.941Z,13.44
2022-09-26T01:53:05.589Z,13.35
2022-09-26T01:55:40.548Z,13.36
2022-09-26T01:58:17.299Z,13.39
2022-09-26T02:00:50.991Z,13.36
2022-09-26T02:03:28.443Z,13.36
2022-09-26T02:06:04.480Z,13.35
2022-09-26T02:08:40.193Z,13.32
2022-09-26T02:11:16.782Z,13.31
2022-09-26T02:13:53.385Z,13.31
2022-09-26T02:16:28.751Z,13.32
2022-09-26T02:19:04.843Z,13.32
2022-09-26T02:21:38.180Z,13.28
2022-09-26T02:24:07.318Z,13.28
2022-09-26T02:26:37.530Z,13.24
2022-09-26T02:29:07.941Z,13.21
2022-09-26T02:31:44.762Z,13.05
2022-09-26T02:34:14.811Z,13.03
2022-09-26T02:36:44.723Z,13.04
2022-09-26T02:39:14.168Z,12.98
2022-09-26T02:42:19.160Z,12.99
2022-09-26T02:45:22.755Z,13.08
2022-09-26T02:48:21.593Z,13.08
2022-09-26T02:51:12.546Z,13.08
2022-09-26T02:54:09.433Z,13.04
2022-09-26T02:57:08.788Z,12.92
2022-09-26T02:59:52.546Z,12.97
2022-09-26T03:03:20.725Z,12.99
2022-09-26T03:06:00.369Z,13.01
2022-09-26T03:08:34.572Z,13.02
2022-09-26T03:11:10.925Z,12.98
2022-09-26T03:13:41.758Z,12.95
2022-09-26T03:16:14.747Z,12.90
2022-09-26T03:18:53.526Z,12.86
2022-09-26T03:21:22.994Z,12.87
2022-09-26T03:23:52.675Z,12.89
2022-09-26T03:26:24.741Z,12.88
2022-09-26T03:29:02.775Z,12.91
2022-09-26T03:31:34.101Z,12.89
2022-09-26T03:34:07.487Z,12.89
2022-09-26T03:36:36.204Z,12.88
2022-09-26T03:39:05.626Z,12.88
2022-09-26T03:41:38.703Z,12.87
2022-09-26T03:44:07.479Z,12.89
2022-09-26T03:47:02.016Z,12.89
2022-09-26T03:49:32.269Z,12.88
2022-09-26T03:52:01.012Z,12.87
2022-09-26T03:54:30.377Z,12.87
2022-09-26T03:56:59.398Z,12.86
2022-09-26T03:59:28.998Z,12.85
2022-09-26T04:01:58.378Z,12.85
2022-09-26T04:04:27.884Z,12.86
2022-09-26T04:06:59.634Z,12.85
2022-09-26T04:09:29.991Z,12.86
2022-09-26T04:11:59.006Z,12.82
2022-09-26T04:14:27.810Z,12.83
2022-09-26T04:17:01.096Z,12.82
2022-09-26T04:19:34.742Z,12.82
2022-09-26T04:22:08.378Z,12.83
2022-09-26T04:24:37.815Z,12.83
2022-09-26T04:27:11.657Z,12.83
2022-09-26T04:29:40.926Z,12.81
2022-09-26T04:32:13.694Z,12.79
2022-09-26T04:34:55.218Z,12.77
2022-09-26T04:37:25.548Z,12.80
2022-09-26T04:39:54.877Z,12.71
2022-09-26T04:42:26.096Z,12.74
2022-09-26T04:44:55.011Z,12.74
2022-09-26T04:50:19.132Z,12.75
2022-09-26T04:53:08.162Z,12.76
2022-09-26T04:55:59.927Z,12.73
2022-09-26T04:58:32.489Z,12.74
2022-09-26T05:01:06.198Z,12.72
2022-09-26T05:03:46.699Z,12.72
2022-09-26T05:06:17.755Z,12.73
2022-09-26T05:08:48.637Z,12.71
2022-09-26T05:11:28.327Z,12.73
2022-09-26T05:13:58.321Z,12.71
2022-09-26T05:16:30.711Z,12.73
2022-09-26T05:19:02.545Z,12.70
2022-09-26T05:21:31.549Z,12.70
2022-09-26T05:24:19.081Z,12.69
2022-09-26T05:26:52.482Z,12.67
2022-09-26T05:29:22.450Z,12.65
2022-09-26T05:31:56.231Z,12.67
2022-09-26T05:34:29.097Z,12.64
2022-09-26T05:36:57.751Z,12.61
2022-09-26T05:39:45.280Z,12.61
2022-09-26T05:42:15.477Z,12.64
2022-09-26T05:44:44.975Z,12.65
2022-09-26T05:47:14.245Z,12.62
2022-09-26T05:49:42.910Z,12.59
2022-09-26T05:52:15.987Z,12.58
2022-09-26T05:54:45.963Z,12.58
2022-09-26T05:57:40.708Z,12.56
2022-09-26T06:00:10.851Z,12.58
2022-09-26T06:02:55.167Z,12.59
2022-09-26T06:05:38.205Z,12.58
2022-09-26T06:08:17.497Z,12.47
2022-09-26T06:10:52.065Z,12.50
2022-09-26T06:13:21.687Z,12.51
2022-09-26T06:15:54.675Z,12.46
2022-09-26T06:18:23.498Z,12.48
2022-09-26T06:20:52.332Z,12.51
2022-09-26T06:23:21.218Z,12.50
2022-09-26T06:25:51.287Z,12.55
2022-09-26T06:28:20.159Z,12.57
2022-09-26T06:30:48.811Z,12.55
2022-09-26T06:33:33.137Z,12.58
2022-09-26T06:36:16.424Z,12.56
2022-09-26T06:38:45.134Z,12.60
2022-09-26T06:41:19.710Z,12.61
2022-09-26T06:43:50.008Z,12.63
2022-09-26T06:46:32.357Z,12.60
2022-09-26T06:49:14.148Z,12.65
2022-09-26T06:51:49.018Z,12.63
2022-09-26T06:54:19.124Z,12.65
2022-09-26T06:56:49.873Z,12.64
2022-09-26T06:59:18.615Z,12.60
2022-09-26T07:01:56.743Z,12.63
2022-09-26T07:04:52.353Z,12.65
2022-09-26T07:07:41.951Z,12.68
2022-09-26T07:10:16.904Z,12.74
2022-09-26T07:13:08.081Z,12.73
2022-09-26T07:15:38.349Z,12.74
2022-09-26T07:18:25.834Z,12.72
2022-09-26T07:21:18.130Z,12.64
2022-09-26T07:23:49.723Z,12.67
2022-09-26T07:26:21.484Z,12.72
2022-09-26T07:28:54.735Z,12.81
2022-09-26T07:31:25.242Z,12.85
2022-09-26T07:34:18.164Z,12.87
2022-09-26T07:36:47.850Z,12.95
2022-09-26T07:39:17.357Z,13.00
2022-09-26T07:41:46.878Z,13.04
2022-09-26T07:47:23.711Z,13.13
2022-09-26T07:50:09.900Z,13.26
2022-09-26T07:52:50.458Z,13.34
2022-09-26T07:55:27.315Z,13.44
2022-09-26T07:58:26.070Z,13.55
2022-09-26T08:01:18.498Z,13.54
2022-09-26T08:04:06.588Z,13.63
2022-09-26T08:06:39.266Z,13.71
2022-09-26T08:09:08.075Z,13.74
2022-09-26T08:12:05.903Z,13.68
2022-09-26T08:14:53.331Z,13.73
2022-09-26T08:17:36.197Z,13.79
2022-09-26T08:20:05.944Z,13.84
2022-09-26T08:22:35.089Z,13.96
2022-09-26T08:25:04.249Z,14.05
2022-09-26T08:27:53.225Z,14.17
2022-09-26T08:30:25.318Z,14.33
2022-09-26T08:33:01.368Z,14.46
2022-09-26T08:35:38.559Z,14.57
2022-09-26T08:38:40.397Z,14.72
2022-09-26T08:42:00.739Z,14.84
2022-09-26T08:45:47.502Z,15.01
2022-09-26T08:49:14.258Z,14.92
2022-09-26T08:51:49.413Z,14.94
2022-09-26T08:54:27.474Z,15.08
2022-09-26T08:57:06.854Z,15.29
2022-09-26T08:59:42.707Z,15.48
2022-09-26T09:02:30.347Z,15.66
2022-09-26T09:05:12.690Z,15.75
2022-09-26T09:07:52.945Z,15.92
2022-09-26T09:10:47.751Z,16.17
2022-09-26T09:13:49.821Z,16.45
2022-09-26T09:17:08.287Z,16.78
2022-09-26T09:20:16.195Z,16.93
2022-09-26T09:23:35.768Z,17.09
2022-09-26T09:29:41.813Z,16.96
2022-09-26T09:32:53.263Z,17.11
2022-09-26T09:36:02.404Z,17.22
2022-09-26T09:38:47.197Z,17.50
2022-09-26T09:41:43.225Z,17.73
2022-09-26T09:44:29.515Z,17.91
2022-09-26T09:46:58.211Z,18.04
2022-09-26T09:49:27.982Z,18.15
2022-09-26T09:52:23.323Z,18.13
2022-09-26T09:55:16.256Z,18.10
2022-09-26T09:58:08.760Z,18.36
2022-09-26T10:00:49.039Z,18.48
2022-09-26T10:03:34.983Z,18.55
2022-09-26T10:06:45.099Z,18.52
2022-09-26T10:09:39.283Z,18.38
2022-09-26T10:12:21.522Z,18.68
2022-09-26T10:15:20.812Z,18.73
2022-09-26T10:18:26.660Z,18.52
2022-09-26T10:21:13.353Z,18.23
2022-09-26T10:23:46.894Z,18.12
2022-09-26T10:26:36.025Z,18.02
2022-09-26T10:29:21.520Z,17.65
2022-09-26T10:32:00.407Z,17.28
2022-09-26T10:34:33.215Z,17.17
2022-09-26T10:37:24.373Z,17.26
2022-09-26T10:40:18.002Z,17.47
2022-09-26T10:42:49.925Z,17.86
2022-09-26T10:45:29.332Z,18.44
2022-09-26T10:47:59.437Z,18.71
2022-09-26T10:51:00.661Z,19.13
2022-09-26T10:54:04.502Z,19.58
2022-09-26T10:56:50.862Z,19.84
2022-09-26T10:59:28.973Z,20.20
2022-09-26T11:01:59.530Z,20.24
2022-09-26T11:04:50.813Z,19.66
2022-09-26T11:07:43.171Z,18.85
2022-09-26T11:10:59.922Z,18.43
2022-09-26T11:13:48.229Z,18.56
2022-09-26T11:16:20.642Z,19.01
2022-09-26T11:19:05.260Z,19.43
2022-09-26T11:21:45.687Z,19.69
2022-09-26T11:27:28.353Z,19.75
2022-09-26T11:33:15.056Z,19.26
2022-09-26T11:36:53.201Z,18.95
2022-09-26T11:39:50.630Z,18.85
2022-09-26T11:42:37.590Z,18.63
2022-09-26T11:45:21.386Z,18.33
2022-09-26T11:48:37.308Z,17.97
2022-09-26T11:51:47.885Z,18.11
2022-09-26T11:54:53.641Z,18.30
2022-09-26T11:57:50.287Z,18.39
2022-09-26T12:00:27.538Z,18.26
2022-09-26T12:03:40.213Z,18.16
2022-09-26T12:06:23.870Z,17.97
2022-09-26T12:09:13.215Z,18.03
2022-09-26T12:11:57.170Z,18.11
2022-09-26T12:14:44.137Z,18.19
2022-09-26T12:17:25.534Z,18.24
2022-09-26T12:20:14.390Z,18.20
2022-09-26T12:22:56.704Z,18.03
2022-09-26T12:25:40.018Z,18.03
2022-09-26T12:28:43.308Z,17.64
2022-09-26T12:31:23.410Z,17.67
2022-09-26T12:34:16.085Z,17.70
2022-09-26T12:37:06.804Z,17.61
2022-09-26T12:40:09.566Z,17.56
2022-09-26T12:43:14.068Z,17.55
2022-09-26T12:46:04.859Z,17.36
2022-09-26T12:48:58.614Z,17.28
2022-09-26T12:51:44.095Z,17.22
2022-09-26T12:54:44.298Z,17.19
2022-09-26T12:57:30.911Z,17.20
2022-09-26T13:00:17.319Z,17.25
2022-09-26T13:03:45.647Z,17.31
2022-09-26T13:07:17.950Z,17.28
2022-09-26T13:10:22.303Z,17.24
2022-09-26T13:13:24.852Z,17.15
2022-09-26T13:16:26.479Z,17.13
2022-09-26T13:19:05.386Z,17.17
2022-09-26T13:21:48.803Z,17.23
2022-09-26T13:24:25.474Z,17.17
2022-09-26T13:27:06.108Z,17.22
2022-09-26T13:29:39.329Z,17.08
2022-09-26T13:32:23.032Z,17.17
2022-09-26T13:35:04.217Z,17.23
2022-09-26T13:37:56.610Z,17.19
2022-09-26T13:40:42.294Z,17.22
2022-09-26T13:43:29.230Z,17.24
2022-09-26T13:46:10.971Z,17.28
2022-09-26T13:48:51.911Z,17.38
2022-09-26T13:51:27.660Z,17.43
2022-09-26T13:54:10.706Z,17.45
2022-09-26T13:56:49.959Z,17.43
2022-09-26T13:59:54.599Z,17.40
2022-09-26T14:02:29.365Z,17.39
2022-09-26T14:05:47.173Z,17.42
2022-09-26T14:08:52.248Z,17.47
2022-09-26T14:11:45.492Z,17.46
2022-09-26T14:14:46.246Z,17.51
2022-09-26T14:18:22.205Z,17.50
2022-09-26T14:21:19.329Z,17.49
2022-09-26T14:24:11.091Z,17.48
2022-09-26T14:26:45.234Z,17.48
2022-09-26T14:29:36.661Z,17.41
2022-09-26T14:32:17.871Z,17.35
2022-09-26T14:34:59.514Z,17.33
2022-09-26T14:37:43.155Z,17.15
2022-09-26T14:40:28.300Z,17.22
2022-09-26T14:43:14.597Z,17.23
2022-09-26T14:45:51.480Z,17.23
2022-09-26T14:48:37.832Z,17.23
2022-09-26T14:51:25.952Z,17.20
2022-09-26T14:54:01.037Z,17.14
2022-09-26T14:56:45.450Z,17.08
2022-09-26T14:59:45.462Z,17.04
2022-09-26T15:02:31.484Z,16.94
2022-09-26T15:05:28.248Z,16.91
2022-09-26T15:08:00.695Z,16.88
2022-09-26T15:10:43.724Z,16.91
2022-09-26T15:13:29.905Z,16.92
2022-09-26T15:16:14.439Z,16.92
2022-09-26T15:18:49.027Z,16.91
2022-09-26T15:21:28.438Z,16.84
2022-09-26T15:23:58.914Z,16.78
2022-09-26T15:26:32.617Z,16.76
2022-09-26T15:29:02.242Z,16.74
2022-09-26T15:31:41.080Z,16.64
2022-09-26T15:34:16.618Z,16.62
2022-09-26T15:37:00.316Z,16.58
2022-09-26T15:39:43.496Z,16.54
2022-09-26T15:42:42.297Z,16.52
2022-09-26T15:45:23.389Z,16.48
2022-09-26T15:47:52.436Z,16.35
2022-09-26T15:50:26.442Z,16.31
2022-09-26T15:53:03.717Z,16.20
2022-09-26T15:55:43.860Z,16.04
2022-09-26T15:58:19.957Z,16.00
2022-09-26T16:00:52.855Z,15.84
2022-09-26T16:03:45.943Z,15.81
2022-09-26T16:06:30.271Z,15.57
2022-09-26T16:09:25.741Z,15.53
2022-09-26T16:12:01.326Z,15.51
2022-09-26T16:14:41.461Z,15.44
2022-09-26T16:17:23.584Z,15.44
2022-09-26T16:19:55.887Z,15.39
2022-09-26T16:22:44.913Z,15.34
2022-09-26T16:25:32.144Z,15.26
2022-09-26T16:28:19.141Z,15.19
2022-09-26T16:31:10.579Z,15.13
2022-09-26T16:33:42.640Z,15.07
2022-09-26T16:36:20.831Z,14.96
2022-09-26T16:39:02.881Z,14.90
2022-09-26T16:42:00.637Z,14.83
2022-09-26T16:44:35.736Z,14.79
2022-09-26T16:47:29.961Z,14.72
2022-09-26T16:50:17.448Z,14.63
2022-09-26T16:52:46.642Z,14.46
2022-09-26T16:55:15.656Z,14.45
2022-09-26T16:57:55.489Z,14.37
2022-09-26T17:00:50.098Z,14.22
2022-09-26T17:03:25.263Z,14.05
2022-09-26T17:05:58.248Z,14.04
2022-09-26T17:08:30.121Z,14.04
2022-09-26T17:11:05.089Z,14.00
2022-09-26T17:13:40.199Z,13.99
2022-09-26T17:16:11.217Z,13.92
2022-09-26T17:18:44.259Z,13.77
2022-09-26T17:21:14.826Z,13.59
2022-09-26T17:23:44.166Z,13.43
2022-09-26T17:26:21.882Z,13.48
2022-09-26T17:28:54.488Z,13.46
2022-09-26T17:31:24.892Z,13.41
2022-09-26T17:33:55.504Z,13.38
2022-09-26T17:36:28.060Z,13.22
2022-09-26T17:38:59.621Z,13.18
2022-09-26T17:41:29.027Z,13.08
2022-09-26T17:44:01.177Z,13.13
2022-09-26T17:46:30.576Z,13.15
2022-09-26T17:49:05.192Z,13.14
2022-09-26T17:51:35.807Z,13.20
2022-09-26T17:54:07.215Z,13.00
2022-09-26T17:56:36.032Z,13.03
2022-09-26T17:59:18.690Z,12.98
2022-09-26T18:01:52.394Z,12.91
2022-09-26T18:04:23.245Z,12.84
2022-09-26T18:06:54.335Z,12.75
2022-09-26T18:09:23.839Z,12.71
2022-09-26T18:12:01.000Z,12.65
2022-09-26T18:14:35.562Z,12.55
2022-09-26T18:17:04.569Z,12.53
2022-09-26T18:19:35.307Z,12.45
2022-09-26T18:22:04.126Z,12.30
2022-09-26T18:24:33.116Z,12.22
2022-09-26T18:27:07.222Z,12.20
2022-09-26T18:29:41.267Z,12.20
2022-09-26T18:32:21.754Z,12.13
2022-09-26T18:34:50.496Z,12.14
2022-09-26T18:37:19.411Z,12.13
2022-09-26T18:39:53.638Z,12.26
2022-09-26T18:42:24.885Z,12.32
2022-09-26T18:45:03.679Z,12.38
2022-09-26T18:47:40.525Z,12.23
2022-09-26T18:50:22.287Z,12.21
2022-09-26T18:52:52.206Z,12.18
2022-09-26T18:55:41.439Z,12.15
2022-09-26T18:58:27.408Z,12.10
2022-09-26T19:01:01.030Z,11.92
2022-09-26T19:03:32.995Z,11.91
2022-09-26T19:06:06.585Z,11.94
2022-09-26T19:08:39.610Z,11.85
2022-09-26T19:11:20.248Z,11.84
2022-09-26T19:13:57.631Z,11.88
2022-09-26T19:16:27.993Z,11.91
2022-09-26T19:19:02.796Z,11.89
2022-09-26T19:21:38.833Z,11.91
2022-09-26T19:24:20.559Z,11.76
2022-09-26T19:26:54.444Z,11.83
2022-09-26T19:29:31.608Z,11.78
2022-09-26T19:32:23.211Z,11.79
2022-09-26T19:34:57.956Z,11.83
2022-09-26T19:37:26.791Z,11.82
2022-09-26T19:39:58.807Z,11.84
2022-09-26T19:42:27.808Z,11.88
2022-09-26T19:44:58.522Z,11.73
2022-09-26T19:47:33.581Z,11.74
2022-09-26T19:50:02.741Z,11.78
2022-09-26T19:52:32.248Z,11.66
2022-09-26T19:55:01.063Z,11.75
2022-09-26T19:57:30.025Z,11.82
2022-09-26T20:00:03.030Z,11.85
2022-09-26T20:02:35.069Z,11.82
2022-09-26T20:05:16.500Z,11.67
2022-09-26T20:07:47.799Z,11.65
2022-09-26T20:10:19.399Z,11.50
2022-09-26T20:12:49.674Z,11.52
2022-09-26T20:15:21.266Z,11.54
2022-09-26T20:17:55.184Z,11.52
2022-09-26T20:20:26.628Z,11.42
2022-09-26T20:22:57.499Z,11.24
2022-09-26T20:25:31.073Z,11.14
2022-09-26T20:28:00.923Z,11.15
2022-09-26T20:30:47.807Z,11.27
2022-09-26T20:33:22.016Z,11.19
2022-09-26T20:35:57.789Z,11.20
2022-09-26T20:38:37.958Z,11.12
2022-09-26T20:41:13.543Z,11.12
2022-09-26T20:43:48.029Z,11.14
2022-09-26T20:46:17.084Z,11.05
2022-09-26T20:48:50.426Z,11.05
2022-09-26T20:51:25.026Z,10.99
2022-09-26T20:53:54.204Z,11.10
2022-09-26T20:56:22.907Z,10.98
2022-09-26T20:58:51.692Z,10.93
2022-09-26T21:01:23.343Z,10.96
2022-09-26T21:03:56.567Z,10.95
2022-09-26T21:06:31.690Z,10.98
2022-09-26T21:09:00.521Z,10.86
2022-09-26T21:11:29.442Z,10.81
2022-09-26T21:13:58.155Z,10.81
2022-09-26T21:16:27.438Z,10.79
2022-09-26T21:18:57.568Z,10.84
2022-09-26T21:21:30.509Z,10.93
2022-09-26T21:24:00.801Z,10.93
2022-09-26T21:26:31.358Z,10.90
2022-09-26T21:29:00.105Z,11.00
2022-09-26T21:31:33.545Z,11.15
2022-09-26T21:34:05.386Z,11.25
2022-09-26T21:36:40.407Z,11.23
2022-09-26T21:39:09.195Z,11.18
2022-09-26T21:41:38.311Z,11.17
2022-09-26T21:44:17.320Z,11.28
2022-09-26T21:46:46.303Z,11.35
2022-09-26T21:49:16.565Z,11.40
2022-09-26T21:51:52.657Z,11.44
2022-09-26T21:54:29.239Z,11.41
2022-09-26T21:57:07.458Z,11.39
2022-09-26T21:59:41.157Z,11.39
2022-09-26T22:02:09.963Z,11.42
2022-09-26T22:04:40.400Z,11.43
2022-09-26T22:07:09.594Z,11.46
2022-09-26T22:09:38.308Z,11.36
2022-09-26T22:12:07.484Z,11.27
2022-09-26T22:14:36.170Z,11.26
2022-09-26T22:17:04.967Z,11.23
2022-09-26T22:19:35.237Z,11.34
2022-09-26T22:22:05.702Z,11.39
2022-09-26T22:24:34.432Z,11.42
2022-09-26T22:27:03.252Z,11.43
2022-09-26T22:29:32.705Z,11.46
2022-09-26T22:32:03.887Z,11.44
2022-09-26T22:34:32.812Z,11.40
2022-09-26T22:37:01.681Z,11.35
2022-09-26T22:39:31.958Z,11.31
2022-09-26T22:42:00.755Z,11.32
2022-09-26T22:44:29.471Z,11.39
2022-09-26T22:46:58.227Z,11.41
2022-09-26T22:49:27.281Z,11.31
2022-09-26T22:51:56.193Z,11.30
2022-09-26T22:54:25.109Z,11.37
2022-09-26T22:56:58.432Z,11.42
2022-09-26T22:59:27.211Z,11.45
2022-09-26T23:01:58.482Z,11.47
2022-09-26T23:04:46.964Z,11.51
2022-09-26T23:07:18.888Z,11.45
2022-09-26T23:09:48.004Z,11.41
2022-09-26T23:12:19.184Z,11.45
2022-09-26T23:14:47.899Z,11.45
2022-09-26T23:17:17.668Z,11.46
2022-09-26T23:19:46.666Z,11.49
2022-09-26T23:22:15.474Z,11.53
2022-09-26T23:24:46.249Z,11.55
2022-09-26T23:27:15.002Z,11.49
2022-09-26T23:29:45.194Z,11.46
2022-09-26T23:32:14.007Z,11.49
2022-09-26T23:34:42.742Z,11.49
2022-09-26T23:37:11.478Z,11.53
2022-09-26T23:39:40.170Z,11.53
2022-09-26T23:42:09.276Z,11.57
2022-09-26T23:44:37.983Z,11.56
2022-09-26T23:47:08.263Z,11.58
2022-09-26T23:49:37.064Z,11.61
2022-09-26T23:52:05.864Z,11.63
2022-09-26T23:54:34.627Z,11.64
2022-09-26T23:57:03.321Z,11.64
2022-09-26T23:59:32.042Z,11.63
